Time;durP1;ratioP1;P1;durP2;ratioP2;P2;SDS_P1;SDS_P2;PMS_P1;PMS_P2;Temp;Humidity;BMP_temperature;BMP_pressure;BME280_temperature;BME280_humidity;BME280_pressure;Samples;Min_cycle;Max_cycle;Signal;HPM_P1;HPM_P2
2022/05/26 00:00:35;;;;;;;7.60;3.10;;;;;17.90;97196.20;;;;110786;1250;41143;-64
2022/05/26 00:03:04;;;;;;;9.70;4.20;;;;;17.90;97203.20;;;;110810;1250;41615;-60
2022/05/26 00:05:34;;;;;;;10.10;4.80;;;;;17.98;97223.80;;;;110596;1253;41607;-61
2022/05/26 00:08:07;;;;;;;10.50;4.70;;;;;18.00;97248.20;;;;110855;1250;41869;-58
2022/05/26 00:10:38;;;;;;;11.90;5.40;;;;;18.00;97268.80;;;;110712;1250;41721;-58
2022/05/26 00:13:09;;;;;;;12.20;6.10;;;;;17.90;97280.40;;;;110874;1251;41149;-58
2022/05/26 00:15:40;;;;;;;16.40;7.00;;;;;17.62;97301.60;;;;110833;1250;42436;-59
2022/05/26 00:18:11;;;;;;;13.60;5.70;;;;;17.38;97345.20;;;;110919;1250;41126;-66
2022/05/26 00:20:41;;;;;;;15.00;7.50;;;;;17.20;97400.80;;;;110626;1250;41163;-59
2022/05/26 00:23:12;;;;;;;19.60;10.10;;;;;17.10;97434.60;;;;110845;1250;41700;-61
2022/05/26 00:25:44;;;;;;;17.20;8.30;;;;;17.30;97453.40;;;;110668;1250;41469;-60
2022/05/26 00:28:16;;;;;;;20.10;8.20;;;;;17.30;97479.00;;;;110626;1251;41151;-61
2022/05/26 00:30:46;;;;;;;23.10;11.10;;;;;17.20;97488.60;;;;110593;1253;41753;-59
2022/05/26 00:33:17;;;;;;;;;;;;;17.20;97499.60;;;;110821;1250;41263;-60
2022/05/26 00:35:47;;;;;;;16.30;8.90;;;;;17.00;97510.00;;;;110895;1249;41604;-59
2022/05/26 00:38:18;;;;;;;19.70;9.80;;;;;17.00;97510.20;;;;110904;1250;41885;-63
2022/05/26 00:40:49;;;;;;;19.60;7.90;;;;;16.90;97511.60;;;;110816;1251;41425;-58
2022/05/26 00:43:21;;;;;;;14.20;6.40;;;;;16.80;97520.80;;;;110800;1250;41610;-65
2022/05/26 00:46:17;;;;;;;12.50;5.80;;;;;16.80;97517.00;;;;110828;1250;41243;-70
2022/05/26 00:48:53;;;;;;;14.10;6.50;;;;;16.90;97514.60;;;;110842;1250;41709;-59
2022/05/26 00:51:29;;;;;;;18.90;8.70;;;;;16.90;97504.20;;;;110812;1250;41831;-60
2022/05/26 00:54:09;;;;;;;12.40;6.20;;;;;16.90;97501.20;;;;110754;1250;41167;-71
2022/05/26 00:56:43;;;;;;;13.40;6.10;;;;;17.00;97492.80;;;;110790;1250;41594;-63
2022/05/26 00:59:28;;;;;;;23.90;7.60;;;;;17.00;97485.60;;;;110714;1249;41358;-61
2022/05/26 01:01:59;;;;;;;16.80;7.60;;;;;16.90;97475.20;;;;110590;1250;41449;-58
2022/05/26 01:04:40;;;;;;;15.50;8.10;;;;;16.80;97470.60;;;;110540;1253;41254;-63
2022/05/26 01:07:20;;;;;;;17.90;8.80;;;;;16.90;97465.00;;;;110777;1250;41613;-63
2022/05/26 01:09:51;;;;;;;18.60;7.90;;;;;16.90;97457.20;;;;110728;1250;41207;-66
2022/05/26 01:12:24;;;;;;;23.60;10.30;;;;;16.98;97451.40;;;;110831;1250;41984;-63
2022/05/26 01:15:04;;;;;;;21.00;8.70;;;;;17.00;97455.40;;;;110608;1251;41734;-67
2022/05/26 01:17:48;;;;;;;20.00;8.00;;;;;16.90;97452.80;;;;110870;1250;41138;-66
2022/05/26 01:20:28;;;;;;;15.10;6.80;;;;;16.88;97447.40;;;;110617;1250;41139;-61
2022/05/26 01:23:27;;;;;;;14.50;5.60;;;;;16.80;97466.80;;;;110685;1250;41139;-62
2022/05/26 01:26:07;;;;;;;12.90;5.40;;;;;16.70;97476.40;;;;110653;1251;42140;-65
2022/05/26 01:28:41;;;;;;;9.90;4.50;;;;;16.70;97494.80;;;;110838;1250;42294;-69
2022/05/26 01:31:34;;;;;;;10.10;4.00;;;;;16.70;97498.40;;;;110747;1249;41181;-62
2022/05/26 01:34:19;;;;;;;10.40;4.30;;;;;16.66;97503.40;;;;110702;1252;41133;-66
2022/05/26 01:37:19;;;;;;;11.30;4.20;;;;;16.70;97501.20;;;;110842;1250;41269;-62
2022/05/26 01:40:10;;;;;;;8.60;3.70;;;;;16.70;97497.20;;;;110787;1250;41137;-64
2022/05/26 01:42:46;;;;;;;8.60;3.30;;;;;16.70;97482.40;;;;110717;1251;41276;-59
2022/05/26 01:45:39;;;;;;;8.30;3.10;;;;;16.70;97480.00;;;;110795;1250;41163;-67
2022/05/26 01:48:21;;;;;;;11.00;3.70;;;;;16.70;97467.20;;;;110707;1250;41246;-62
2022/05/26 01:51:37;;;;;;;9.50;3.20;;;;;16.72;97465.40;;;;110843;1250;41257;-61
2022/05/26 01:54:19;;;;;;;7.10;2.90;;;;;16.80;97466.40;;;;110820;1249;41947;-61
2022/05/26 01:57:10;;;;;;;7.50;3.00;;;;;16.78;97471.60;;;;110830;1250;41150;-64
2022/05/26 01:59:52;;;;;;;6.90;2.40;;;;;16.80;97479.60;;;;110602;1253;41146;-63
2022/05/26 02:02:25;;;;;;;6.00;2.40;;;;;16.80;97481.20;;;;110830;1250;41553;-61
2022/05/26 02:05:12;;;;;;;6.50;2.90;;;;;16.80;97475.60;;;;110581;1253;41923;-65
2022/05/26 02:08:03;;;;;;;6.60;2.80;;;;;16.90;97470.60;;;;110800;1250;41948;-61
2022/05/26 02:10:47;;;;;;;7.00;2.70;;;;;16.90;97473.60;;;;110592;1251;42370;-58
2022/05/26 02:13:26;;;;;;;10.30;3.20;;;;;16.90;97476.80;;;;110816;1250;41761;-62
2022/05/26 02:16:06;;;;;;;6.80;2.80;;;;;16.90;97466.80;;;;110837;1250;41178;-58
2022/05/26 02:18:50;;;;;;;5.90;2.50;;;;;16.90;97467.60;;;;110834;1252;42364;-61
2022/05/26 02:21:30;;;;;;;8.30;2.90;;;;;16.96;97464.60;;;;110859;1250;41162;-57
2022/05/26 02:24:37;;;;;;;7.20;3.20;;;;;17.00;97458.80;;;;110817;1251;42373;-62
2022/05/26 02:27:09;;;;;;;9.10;4.00;;;;;17.00;97458.20;;;;110301;1256;41276;-71
2022/05/26 02:29:52;;;;;;;10.40;4.40;;;;;17.00;97455.60;;;;110109;1259;41164;-60
2022/05/26 02:32:36;;;;;;;10.20;5.10;;;;;17.10;97451.80;;;;110333;1256;42003;-60
2022/05/26 02:35:25;;;;;;;10.70;4.60;;;;;17.10;97439.00;;;;110232;1257;41151;-63
2022/05/26 02:38:04;;;;;;;9.30;4.00;;;;;17.10;97430.00;;;;110266;1256;41256;-64
2022/05/26 02:40:36;;;;;;;10.50;4.00;;;;;17.10;97434.00;;;;110223;1256;41363;-58
2022/05/26 02:43:20;;;;;;;9.70;3.70;;;;;17.10;97433.80;;;;110278;1256;41171;-59
2022/05/26 02:46:24;;;;;;;7.40;3.20;;;;;17.10;97431.60;;;;110275;1256;41259;-58
2022/05/26 02:49:06;;;;;;;8.60;3.20;;;;;17.00;97428.00;;;;110138;1259;41172;-61
2022/05/26 02:51:41;;;;;;;7.00;3.00;;;;;17.00;97439.40;;;;110328;1256;41149;-71
2022/05/26 02:54:31;;;;;;;9.10;3.50;;;;;16.92;97447.60;;;;110250;1256;41189;-63
2022/05/26 02:57:10;;;;;;;8.20;3.10;;;;;16.90;97462.20;;;;110252;1256;41360;-58
2022/05/26 02:59:59;;;;;;;7.40;3.40;;;;;16.90;97465.80;;;;110024;1259;41380;-60
2022/05/26 03:02:59;;;;;;;9.20;3.20;;;;;16.90;97465.60;;;;110624;1251;41185;-70
2022/05/26 03:05:41;;;;;;;8.70;3.30;;;;;16.90;97465.40;;;;110548;1252;41172;-60
2022/05/26 03:08:14;;;;;;;6.90;2.90;;;;;16.90;97463.20;;;;110653;1250;41146;-58
2022/05/26 03:10:52;;;;;;;6.90;3.00;;;;;16.90;97463.20;;;;110287;1250;41173;-65
2022/05/26 03:13:26;;;;;;;5.80;2.70;;;;;16.90;97460.20;;;;110597;1251;41702;-59
2022/05/26 03:15:57;;;;;;;5.60;2.60;;;;;16.80;97464.00;;;;110660;1250;41267;-60
2022/05/26 03:18:30;;;;;;;6.40;3.00;;;;;16.80;97470.80;;;;110661;1251;41551;-65
2022/05/26 03:21:01;;;;;;;5.90;2.50;;;;;16.90;97470.60;;;;110665;1249;41273;-61
2022/05/26 03:23:32;;;;;;;7.00;2.50;;;;;16.90;97468.80;;;;110773;1251;41161;-65
2022/05/26 03:26:04;;;;;;;7.60;2.70;;;;;16.90;97467.00;;;;110682;1252;41205;-65
2022/05/26 03:28:36;;;;;;;6.60;2.80;;;;;16.90;97473.40;;;;110610;1251;41356;-59
2022/05/26 03:31:08;;;;;;;6.80;2.90;;;;;16.90;97475.20;;;;110588;1250;41132;-62
2022/05/26 03:42:18;;;;;;;3.90;1.90;;;;;16.92;97480.60;;;;110683;1252;41605;-63
2022/05/26 03:44:51;;;;;;;5.00;2.20;;;;;16.98;97490.60;;;;110552;1252;41809;-66
2022/05/26 03:47:22;;;;;;;4.20;2.00;;;;;17.00;97492.20;;;;110806;1250;42119;-61
2022/05/26 03:49:53;;;;;;;5.00;2.10;;;;;17.00;97496.60;;;;110535;1252;42407;-62
2022/05/26 03:52:24;;;;;;;5.90;2.30;;;;;17.00;97506.40;;;;110673;1250;41948;-63
2022/05/26 03:54:55;;;;;;;5.40;2.10;;;;;17.00;97502.40;;;;110744;1250;41123;-63
2022/05/26 03:57:27;;;;;;;4.80;2.10;;;;;17.10;97508.60;;;;110662;1251;42328;-60
2022/05/26 03:59:56;;;;;;;5.00;2.00;;;;;17.12;97502.60;;;;110757;1250;41888;-57
2022/05/26 04:02:27;;;;;;;6.00;2.50;;;;;17.20;97495.80;;;;110685;1250;42551;-59
2022/05/26 04:05:00;;;;;;;5.10;2.10;;;;;17.20;97495.20;;;;110506;1253;41159;-59
2022/05/26 04:07:30;;;;;;;4.40;2.00;;;;;17.20;97506.60;;;;110694;1251;41154;-64
2022/05/26 04:10:08;;;;;;;6.10;2.20;;;;;17.20;97510.20;;;;110639;1251;41141;-58
2022/05/26 04:12:42;;;;;;;6.50;2.30;;;;;17.30;97513.60;;;;110546;1253;41266;-62
2022/05/26 04:15:15;;;;;;;4.20;1.90;;;;;17.34;97518.40;;;;110533;1253;41133;-67
2022/05/26 04:17:46;;;;;;;4.10;2.00;;;;;17.40;97513.20;;;;110665;1252;42394;-64
2022/05/26 04:20:20;;;;;;;4.30;2.10;;;;;17.50;97513.60;;;;110739;1251;41633;-60
2022/05/26 04:22:50;;;;;;;6.90;2.40;;;;;17.54;97519.20;;;;110613;1251;41158;-72
2022/05/26 04:25:25;;;;;;;6.30;2.60;;;;;17.60;97515.60;;;;110687;1250;41263;-75
2022/05/26 04:27:56;;;;;;;7.30;2.40;;;;;17.70;97523.00;;;;110560;1253;41139;-63
2022/05/26 04:30:25;;;;;;;6.00;2.70;;;;;17.70;97528.60;;;;110800;1250;41164;-60
2022/05/26 04:32:56;;;;;;;7.20;2.90;;;;;17.70;97533.20;;;;110676;1250;41148;-70
2022/05/26 04:35:27;;;;;;;9.30;3.10;;;;;17.70;97533.80;;;;110888;1249;41388;-57
2022/05/26 04:37:57;;;;;;;7.40;2.80;;;;;17.60;97536.20;;;;110823;1250;41141;-58
2022/05/26 04:40:27;;;;;;;7.00;2.50;;;;;17.60;97536.60;;;;110744;1250;41349;-58
2022/05/26 04:42:58;;;;;;;6.40;2.30;;;;;17.60;97536.80;;;;110598;1251;41421;-58
2022/05/26 04:45:28;;;;;;;7.10;2.90;;;;;17.60;97535.40;;;;110778;1252;42095;-68
2022/05/26 04:47:59;;;;;;;6.30;2.50;;;;;17.60;97543.20;;;;110809;1250;41855;-61
2022/05/26 04:50:31;;;;;;;8.20;2.50;;;;;17.60;97537.20;;;;110773;1250;41687;-61
2022/05/26 04:53:02;;;;;;;8.80;2.30;;;;;17.60;97542.60;;;;110673;1250;41232;-60
2022/05/26 04:55:34;;;;;;;6.30;2.40;;;;;17.60;97543.40;;;;110741;1250;42318;-62
2022/05/26 04:58:04;;;;;;;4.60;2.30;;;;;17.68;97537.80;;;;110693;1250;41168;-64
2022/05/26 05:00:33;;;;;;;5.30;2.10;;;;;17.76;97535.40;;;;110659;1249;41159;-60
2022/05/26 05:03:04;;;;;;;6.10;2.30;;;;;17.90;97537.40;;;;110521;1250;42344;-72
2022/05/26 05:05:34;;;;;;;6.60;2.20;;;;;18.00;97529.60;;;;110840;1250;41271;-58
2022/05/26 05:08:04;;;;;;;5.90;2.30;;;;;18.20;97531.60;;;;110834;1250;41214;-59
2022/05/26 05:10:33;;;;;;;7.50;2.50;;;;;18.30;97532.80;;;;110814;1250;41609;-58
2022/05/26 05:13:03;;;;;;;5.80;2.40;;;;;18.40;97535.60;;;;110604;1253;42333;-59
2022/05/26 05:15:37;;;;;;;8.00;2.60;;;;;18.40;97537.40;;;;110795;1251;41152;-73
2022/05/26 05:18:07;;;;;;;5.00;2.30;;;;;18.40;97537.80;;;;110681;1250;41186;-67
2022/05/26 05:20:38;;;;;;;5.80;2.50;;;;;18.50;97539.20;;;;110771;1250;41622;-69
2022/05/26 05:23:12;;;;;;;5.30;2.30;;;;;18.60;97540.60;;;;110839;1250;41597;-67
2022/05/26 05:25:44;;;;;;;12.80;2.90;;;;;18.70;97542.20;;;;110721;1250;41159;-67
2022/05/26 05:28:18;;;;;;;8.90;3.90;;;;;18.70;97539.20;;;;110782;1250;41730;-64
2022/05/26 05:31:04;;;;;;;9.60;3.60;;;;;18.60;97538.40;;;;110653;1251;41149;-66
2022/05/26 05:33:46;;;;;;;9.50;4.20;;;;;18.60;97540.60;;;;110644;1251;41728;-61
2022/05/26 05:36:23;;;;;;;12.40;5.80;;;;;18.60;97539.00;;;;110542;1253;41250;-59
2022/05/26 05:38:53;;;;;;;13.40;6.80;;;;;18.80;97534.00;;;;110666;1250;41605;-59
2022/05/26 05:41:22;;;;;;;14.00;5.80;;;;;19.22;97521.40;;;;110776;1251;41161;-70
2022/05/26 05:43:52;;;;;;;12.70;6.70;;;;;20.06;97527.80;;;;110692;1251;41159;-62
2022/05/26 05:46:22;;;;;;;16.80;7.20;;;;;20.12;97530.60;;;;110506;1253;41140;-75
2022/05/26 05:49:02;;;;;;;12.60;6.40;;;;;20.10;97538.00;;;;110602;1251;41246;-61
2022/05/26 05:51:35;;;;;;;9.20;4.50;;;;;19.96;97543.80;;;;110766;1251;40901;-60
2022/05/26 05:54:08;;;;;;;10.00;4.30;;;;;20.10;97546.60;;;;110564;1253;41262;-59
2022/05/26 05:56:38;;;;;;;12.80;5.60;;;;;20.10;97552.00;;;;110493;1253;41606;-61
2022/05/26 05:59:11;;;;;;;10.90;4.50;;;;;20.40;97541.20;;;;110686;1250;41144;-60
2022/05/26 06:01:41;;;;;;;8.70;4.20;;;;;21.04;97533.40;;;;110493;1252;41301;-65
2022/05/26 06:04:11;;;;;;;11.40;6.00;;;;;21.80;97556.60;;;;110735;1251;42284;-69
2022/05/26 06:06:44;;;;;;;12.20;6.30;;;;;21.80;97550.80;;;;110513;1252;41145;-61
2022/05/26 06:09:16;;;;;;;12.80;6.70;;;;;21.66;97555.00;;;;110659;1253;41481;-67
2022/05/26 06:11:45;;;;;;;12.80;6.20;;;;;21.46;97554.40;;;;110624;1251;41494;-63
2022/05/26 06:14:16;;;;;;;8.50;4.20;;;;;21.20;97560.60;;;;110717;1252;41142;-60
2022/05/26 06:16:46;;;;;;;11.40;4.20;;;;;21.08;97561.00;;;;110496;1251;41154;-71
2022/05/26 06:19:15;;;;;;;11.00;4.80;;;;;21.10;97568.20;;;;110653;1251;41147;-65
2022/05/26 06:21:44;;;;;;;14.90;7.30;;;;;21.10;97573.00;;;;110687;1250;41151;-71
2022/05/26 06:24:14;;;;;;;20.10;11.40;;;;;20.84;97577.40;;;;110515;1251;41157;-68
2022/05/26 06:26:43;;;;;;;21.30;10.20;;;;;20.44;97581.60;;;;110357;1251;355596;-61
2022/05/26 06:37:38;;;;;;;14.10;6.80;;;;;19.88;97584.00;;;;110724;1250;41309;-59
2022/05/26 06:40:08;;;;;;;18.80;7.30;;;;;19.80;97587.60;;;;110803;1250;41895;-61
2022/05/26 06:42:37;;;;;;;13.00;7.20;;;;;19.80;97585.20;;;;110678;1250;41933;-60
2022/05/26 06:45:07;;;;;;;11.70;6.00;;;;;19.86;97587.20;;;;110714;1251;41161;-60
2022/05/26 06:47:36;;;;;;;14.80;6.10;;;;;19.90;97589.60;;;;110706;1250;41645;-60
2022/05/26 06:50:06;;;;;;;12.30;6.20;;;;;20.10;97585.00;;;;110666;1251;41261;-62
2022/05/26 06:52:35;;;;;;;13.50;6.90;;;;;20.52;97585.20;;;;110546;1250;41300;-59
2022/05/26 06:55:06;;;;;;;13.30;6.80;;;;;20.94;97583.40;;;;110784;1250;41507;-61
2022/05/26 06:57:35;;;;;;;11.00;6.00;;;;;21.10;97588.80;;;;110717;1251;41626;-60
2022/05/26 07:00:07;;;;;;;13.60;6.50;;;;;21.28;97586.00;;;;110771;1250;41176;-59
2022/05/26 07:02:37;;;;;;;13.50;4.70;;;;;21.34;97587.60;;;;110644;1250;42368;-70
2022/05/26 07:05:08;;;;;;;9.10;4.00;;;;;21.50;97587.40;;;;110624;1250;42197;-63
2022/05/26 07:07:39;;;;;;;9.00;4.60;;;;;21.74;97587.00;;;;110769;1250;41149;-65
2022/05/26 07:10:12;;;;;;;14.50;6.00;;;;;21.96;97585.80;;;;110641;1251;41218;-58
2022/05/26 07:12:41;;;;;;;11.00;5.00;;;;;22.10;97593.80;;;;110793;1251;41514;-65
2022/05/26 07:15:11;;;;;;;10.10;4.80;;;;;22.10;97596.00;;;;110526;1253;41923;-58
2022/05/26 07:17:45;;;;;;;11.40;5.20;;;;;22.20;97601.00;;;;110763;1250;41922;-61
2022/05/26 07:20:14;;;;;;;9.40;4.70;;;;;22.22;97601.00;;;;110774;1251;41940;-64
2022/05/26 07:22:43;;;;;;;10.30;4.90;;;;;22.40;97600.80;;;;110808;1250;41255;-60
2022/05/26 07:25:13;;;;;;;9.40;5.00;;;;;22.46;97604.80;;;;110762;1250;41139;-65
2022/05/26 07:27:42;;;;;;;10.10;4.70;;;;;22.70;97602.80;;;;110586;1252;41342;-61
2022/05/26 07:30:12;;;;;;;17.50;5.40;;;;;22.90;97601.00;;;;110760;1250;42570;-60
2022/05/26 07:32:41;;;;;;;10.20;5.00;;;;;22.90;97608.00;;;;110634;1252;41156;-59
2022/05/26 07:35:11;;;;;;;;;;;;;22.80;97605.40;;;;110618;1251;41146;-59
2022/05/26 07:43:18;;;;;;;14.30;5.00;;;;;22.18;97624.80;;;;110804;1250;41403;-58
2022/05/26 07:45:50;;;;;;;11.70;4.70;;;;;22.24;97626.40;;;;110795;1253;41896;-58
2022/05/26 07:48:20;;;;;;;10.60;5.00;;;;;22.40;97619.60;;;;110613;1251;42419;-60
2022/05/26 07:50:49;;;;;;;10.30;4.80;;;;;22.60;97629.00;;;;110726;1251;41271;-58
2022/05/26 07:53:18;;;;;;;10.70;4.40;;;;;22.80;97634.60;;;;110717;1250;41356;-63
2022/05/26 07:55:48;;;;;;;9.90;4.60;;;;;23.18;97634.80;;;;110820;1250;41918;-68
2022/05/26 07:58:17;;;;;;;9.10;3.90;;;;;23.30;97637.40;;;;110541;1250;41434;-72
2022/05/26 08:00:47;;;;;;;9.10;4.20;;;;;23.50;97640.00;;;;110823;1250;41150;-58
2022/05/26 08:03:16;;;;;;;8.30;3.70;;;;;23.70;97639.40;;;;110568;1253;41605;-60
2022/05/26 08:05:46;;;;;;;8.40;3.50;;;;;23.80;97646.20;;;;110613;1250;41165;-58
2022/05/26 08:08:15;;;;;;;8.70;4.00;;;;;23.94;97644.00;;;;110598;1251;41269;-58
2022/05/26 08:10:45;;;;;;;8.80;3.90;;;;;24.00;97645.60;;;;110484;1252;41259;-58
2022/05/26 08:13:14;;;;;;;8.70;3.50;;;;;24.10;97654.40;;;;110675;1250;41152;-62
2022/05/26 08:15:43;;;;;;;7.40;3.10;;;;;24.30;97651.20;;;;110711;1250;41548;-64
2022/05/26 08:18:13;;;;;;;7.20;3.20;;;;;24.38;97656.40;;;;110511;1250;41148;-59
2022/05/26 08:20:42;;;;;;;6.50;3.00;;;;;24.50;97661.20;;;;110791;1250;41490;-62
2022/05/26 08:23:12;;;;;;;6.90;3.20;;;;;24.40;97659.60;;;;110760;1250;41149;-62
2022/05/26 08:25:42;;;;;;;7.50;2.80;;;;;24.50;97668.00;;;;110663;1250;41487;-61
2022/05/26 08:28:10;;;;;;;7.70;3.00;;;;;24.70;97659.20;;;;110673;1251;41156;-63
2022/05/26 08:30:43;;;;;;;5.80;2.60;;;;;24.72;97665.00;;;;110752;1250;41252;-57
2022/05/26 08:33:12;;;;;;;7.10;2.90;;;;;24.96;97669.60;;;;110802;1250;41866;-58
2022/05/26 08:35:42;;;;;;;6.70;2.90;;;;;25.10;97673.00;;;;110618;1251;41614;-57
2022/05/26 08:38:11;;;;;;;6.00;2.90;;;;;25.20;97672.40;;;;110628;1251;41937;-59
2022/05/26 08:40:43;;;;;;;9.20;2.50;;;;;25.56;97672.80;;;;110495;1252;41230;-58
2022/05/26 08:43:41;;;;;;;10.50;3.00;;;;;25.60;97676.20;;;;110495;1252;41951;-59
2022/05/26 08:46:17;;;;;;;6.70;2.80;;;;;25.76;97678.20;;;;110591;1253;41599;-61
2022/05/26 08:49:06;;;;;;;6.60;2.40;;;;;25.68;97679.00;;;;110490;1252;41264;-58
2022/05/26 08:51:44;;;;;;;4.70;2.20;;;;;25.74;97679.60;;;;110678;1253;41178;-66
2022/05/26 08:54:27;;;;;;;5.50;2.30;;;;;25.74;97687.60;;;;110629;1252;41926;-57
2022/05/26 08:56:59;;;;;;;4.70;2.30;;;;;25.72;97691.20;;;;110507;1253;41189;-61
2022/05/26 08:59:39;;;;;;;5.50;2.20;;;;;25.76;97696.80;;;;110799;1252;41615;-57
2022/05/26 09:02:25;;;;;;;4.60;2.10;;;;;25.94;97690.60;;;;110737;1251;41157;-58
2022/05/26 09:05:04;;;;;;;4.30;2.00;;;;;26.38;97691.60;;;;110589;1253;41618;-59
2022/05/26 09:13:23;;;;;;;4.10;1.80;;;;;27.80;97682.60;;;;110498;1253;41151;-60
2022/05/26 09:15:53;;;;;;;5.80;1.90;;;;;28.62;97678.40;;;;110340;1255;41612;-61
2022/05/26 09:18:26;;;;;;;3.90;1.60;;;;;29.14;97681.00;;;;110544;1253;41940;-60
2022/05/26 09:21:12;;;;;;;3.50;1.60;;;;;29.56;97676.20;;;;110664;1253;40929;-60
2022/05/26 09:23:43;;;;;;;3.40;1.40;;;;;30.00;97674.60;;;;110598;1253;41154;-61
2022/05/26 09:26:16;;;;;;;4.00;1.60;;;;;30.36;97674.60;;;;110602;1254;41145;-60
2022/05/26 09:28:49;;;;;;;2.60;1.40;;;;;30.50;97670.80;;;;110526;1253;41441;-60
2022/05/26 09:31:32;;;;;;;2.60;1.40;;;;;30.38;97674.20;;;;110579;1253;41141;-59
2022/05/26 09:34:06;;;;;;;2.70;1.50;;;;;30.50;97678.80;;;;110564;1252;42387;-62
2022/05/26 09:36:43;;;;;;;3.40;1.30;;;;;30.50;97676.40;;;;110565;1253;41259;-60
2022/05/26 09:39:17;;;;;;;1.40;1.10;;;;;30.48;97676.60;;;;110607;1253;41464;-60
2022/05/26 09:41:49;;;;;;;1.60;1.10;;;;;30.72;97682.00;;;;110593;1253;42625;-59
2022/05/26 09:44:30;;;;;;;2.90;1.20;;;;;31.20;97688.60;;;;110666;1251;42101;-59
2022/05/26 09:47:04;;;;;;;2.20;1.20;;;;;31.16;97687.20;;;;110755;1250;41991;-60
2022/05/26 09:49:38;;;;;;;3.20;1.20;;;;;30.88;97691.60;;;;110737;1250;41377;-61
2022/05/26 09:52:17;;;;;;;1.20;1.10;;;;;30.74;97692.60;;;;110585;1253;41828;-58
2022/05/26 09:54:47;;;;;;;2.20;1.30;;;;;30.58;97692.80;;;;110580;1253;41729;-65
2022/05/26 09:57:20;;;;;;;2.10;1.30;;;;;30.98;97690.20;;;;110687;1251;41158;-61
2022/05/26 09:59:49;;;;;;;2.60;1.20;;;;;30.60;97683.40;;;;110608;1253;42899;-59
2022/05/26 10:02:34;;;;;;;1.30;1.10;;;;;30.50;97696.60;;;;110721;1252;41642;-64
2022/05/26 10:05:06;;;;;;;1.10;1.00;;;;;30.78;97694.00;;;;110583;1253;41655;-59
2022/05/26 10:07:54;;;;;;;2.40;1.30;;;;;31.10;97696.80;;;;110758;1253;41196;-60
2022/05/26 10:10:35;;;;;;;3.20;1.50;;;;;30.74;97698.60;;;;110729;1252;41146;-60
2022/05/26 10:13:33;;;;;;;1.50;1.20;;;;;30.32;97694.00;;;;110467;1253;41149;-59
2022/05/26 10:16:12;;;;;;;1.40;1.20;;;;;29.54;97693.60;;;;110584;1253;41215;-63
2022/05/26 10:19:06;;;;;;;2.70;1.30;;;;;29.48;97693.60;;;;110727;1253;41187;-63
2022/05/26 10:22:00;;;;;;;3.40;1.30;;;;;29.34;97702.80;;;;110737;1253;41446;-66
2022/05/26 10:24:40;;;;;;;2.10;1.30;;;;;29.50;97708.00;;;;110757;1252;41139;-60
2022/05/26 10:27:23;;;;;;;1.20;1.00;;;;;29.40;97696.40;;;;110754;1252;41269;-61
2022/05/26 10:30:17;;;;;;;1.20;0.80;;;;;29.50;97705.20;;;;110737;1253;42061;-61
2022/05/26 10:33:05;;;;;;;4.90;1.20;;;;;29.78;97707.60;;;;110740;1251;41473;-65
2022/05/26 10:35:39;;;;;;;1.90;0.90;;;;;29.90;97707.40;;;;110576;1253;41682;-66
2022/05/26 10:38:18;;;;;;;4.90;1.10;;;;;29.80;97704.40;;;;110738;1250;41917;-69
2022/05/26 10:41:17;;;;;;;2.90;1.20;;;;;29.74;97707.60;;;;110779;1250;41149;-62
2022/05/26 10:43:47;;;;;;;1.90;0.90;;;;;29.32;97711.80;;;;110651;1250;42357;-60
2022/05/26 10:46:18;;;;;;;1.40;0.90;;;;;29.10;97712.00;;;;110765;1250;41150;-60
2022/05/26 10:49:18;;;;;;;1.00;0.90;;;;;29.08;97713.20;;;;110746;1252;41153;-62
2022/05/26 10:51:55;;;;;;;3.80;1.40;;;;;29.56;97716.60;;;;110711;1252;41144;-62
2022/05/26 10:54:49;;;;;;;1.50;1.10;;;;;30.10;97719.20;;;;110676;1253;41529;-59
2022/05/26 10:57:57;;;;;;;2.70;1.00;;;;;30.48;97712.40;;;;110750;1250;41171;-60
2022/05/26 11:00:29;;;;;;;1.60;1.00;;;;;30.86;97717.80;;;;110354;1255;41729;-59
2022/05/26 11:03:14;;;;;;;0.60;0.60;;;;;31.20;97715.40;;;;110277;1257;41155;-61
2022/05/26 11:06:03;;;;;;;0.90;0.80;;;;;31.74;97716.00;;;;110299;1256;41166;-58
2022/05/26 11:08:32;;;;;;;1.60;0.80;;;;;32.44;97708.80;;;;110340;1256;41688;-59
2022/05/26 11:11:12;;;;;;;0.70;0.70;;;;;33.02;97710.20;;;;110276;1256;41630;-60
2022/05/26 11:13:44;;;;;;;2.80;0.90;;;;;33.30;97706.40;;;;110217;1256;41209;-68
2022/05/26 11:19:41;;;;;;;1.20;0.90;;;;;34.00;97706.60;;;;110270;1257;41308;-67
2022/05/26 11:22:13;;;;;;;1.80;1.40;;;;;34.42;97710.00;;;;110273;1256;41146;-65
2022/05/26 11:24:50;;;;;;;3.90;0.80;;;;;34.56;97708.40;;;;110352;1256;41128;-61
2022/05/26 11:27:25;;;;;;;4.10;1.70;;;;;34.44;97708.20;;;;110257;1256;42998;-66
2022/05/26 11:30:01;;;;;;;1.00;0.80;;;;;33.98;97723.00;;;;110250;1256;41803;-64
2022/05/26 11:38:14;;;;;;;1.10;0.90;;;;;35.36;97712.60;;;;110427;1254;41691;-60
2022/05/26 11:40:49;;;;;;;0.80;0.80;;;;;35.74;97708.40;;;;110682;1252;41159;-66
2022/05/26 11:43:29;;;;;;;1.50;0.90;;;;;35.40;97711.80;;;;110529;1252;41675;-61
2022/05/26 11:45:59;;;;;;;0.70;0.70;;;;;35.68;97717.80;;;;110485;1253;41338;-61
2022/05/26 11:48:32;;;;;;;1.50;0.80;;;;;36.06;97717.60;;;;110641;1251;41150;-63
2022/05/26 11:51:10;;;;;;;4.60;1.00;;;;;35.58;97710.20;;;;110671;1251;41547;-63
2022/05/26 11:53:45;;;;;;;1.10;0.70;;;;;35.44;97714.20;;;;110527;1254;41623;-70
2022/05/26 11:56:30;;;;;;;1.50;0.90;;;;;34.94;97720.60;;;;110685;1250;41181;-60
2022/05/26 11:59:18;;;;;;;1.90;0.80;;;;;34.86;97723.00;;;;110589;1253;41409;-60
2022/05/26 12:01:59;;;;;;;1.40;0.90;;;;;34.40;97715.20;;;;110567;1253;41143;-60
2022/05/26 12:04:31;;;;;;;1.30;0.80;;;;;34.16;97721.80;;;;110684;1252;41144;-59
2022/05/26 12:07:03;;;;;;;2.00;0.90;;;;;34.08;97728.00;;;;110511;1253;42139;-61
2022/05/26 12:09:51;;;;;;;1.40;0.70;;;;;34.20;97725.20;;;;110287;1255;41371;-60
2022/05/26 12:12:23;;;;;;;1.70;1.00;;;;;33.98;97724.80;;;;110494;1253;42381;-66
2022/05/26 12:14:52;;;;;;;1.40;0.90;;;;;33.54;97722.80;;;;110659;1252;41392;-61
2022/05/26 12:17:37;;;;;;;0.70;0.70;;;;;32.96;97723.60;;;;110622;1253;41270;-63
2022/05/26 12:20:09;;;;;;;1.30;1.10;;;;;31.80;97719.60;;;;110677;1251;41204;-63
2022/05/26 12:22:47;;;;;;;1.70;0.70;;;;;31.10;97733.80;;;;110775;1252;42138;-66
2022/05/26 12:25:28;;;;;;;0.70;0.70;;;;;30.32;97732.80;;;;110578;1253;41155;-60
2022/05/26 12:28:26;;;;;;;2.40;0.90;;;;;30.00;97732.20;;;;110740;1250;40782;-62
2022/05/26 12:30:55;;;;;;;3.10;1.10;;;;;29.52;97731.20;;;;110534;1253;41121;-59
2022/05/26 12:33:49;;;;;;;3.10;1.00;;;;;29.48;97732.60;;;;110517;1253;41613;-60
2022/05/26 12:36:29;;;;;;;2.00;1.00;;;;;29.22;97733.20;;;;110488;1253;41611;-59
2022/05/26 12:39:01;;;;;;;2.90;1.00;;;;;28.84;97729.60;;;;110540;1252;41164;-60
2022/05/26 12:41:46;;;;;;;1.40;0.80;;;;;28.50;97732.60;;;;110648;1251;41171;-59
2022/05/26 12:45:09;;;;;;;1.20;1.00;;;;;28.20;97725.20;;;;110633;1252;41610;-60
2022/05/26 12:48:16;;;;;;;2.80;1.00;;;;;27.86;97722.00;;;;110561;1253;41159;-60
2022/05/26 12:50:45;;;;;;;1.10;0.80;;;;;27.62;97724.00;;;;110456;1253;41147;-61
2022/05/26 12:53:27;;;;;;;1.90;1.00;;;;;27.56;97713.60;;;;110666;1253;41181;-60
2022/05/26 12:56:09;;;;;;;1.00;0.80;;;;;27.30;97716.00;;;;110655;1253;41412;-59
2022/05/26 12:58:40;;;;;;;4.40;1.10;;;;;27.08;97714.60;;;;110693;1252;41892;-60
2022/05/26 13:01:14;;;;;;;2.20;1.20;;;;;27.00;97718.20;;;;110657;1252;41204;-72
2022/05/26 13:03:49;;;;;;;1.20;0.90;;;;;26.80;97719.40;;;;110651;1253;41606;-59
2022/05/26 13:06:21;;;;;;;1.20;1.00;;;;;26.70;97725.60;;;;110592;1253;41148;-59
2022/05/26 13:09:08;;;;;;;0.90;0.90;;;;;26.60;97723.00;;;;110661;1251;41252;-58
2022/05/26 13:11:55;;;;;;;1.20;0.90;;;;;26.76;97725.60;;;;110671;1253;41624;-60
2022/05/26 13:14:37;;;;;;;1.10;0.80;;;;;26.80;97728.20;;;;110681;1253;41454;-59
2022/05/26 13:17:18;;;;;;;1.50;1.00;;;;;26.80;97728.80;;;;110605;1252;41629;-60
2022/05/26 13:19:48;;;;;;;2.50;1.10;;;;;26.80;97730.40;;;;110732;1253;42019;-58
2022/05/26 13:22:31;;;;;;;;;;;;;27.00;97729.00;;;;110684;1253;41337;-60
2022/05/26 13:25:13;;;;;;;1.20;1.10;;;;;27.00;97723.20;;;;110581;1253;41172;-59
2022/05/26 13:28:02;;;;;;;1.50;1.20;;;;;26.90;97730.20;;;;110558;1253;41143;-64